sensor_id;sensor_type;location;lat;lon;timestamp;P1;durP1;ratioP1;P2;durP2;ratioP2
22861;SDS011;11598;50.652;6.172;2023-02-28T00:08:35;5.20;;;2.05;;
22861;SDS011;11598;50.652;6.172;2023-02-28T00:18:36;5.90;;;2.35;;
22861;SDS011;11598;50.652;6.172;2023-02-28T00:28:36;6.88;;;1.77;;
22861;SDS011;11598;50.652;6.172;2023-02-28T00:38:37;6.15;;;2.58;;
22861;SDS011;11598;50.652;6.172;2023-02-28T00:58:39;7.07;;;2.53;;
22861;SDS011;11598;50.652;6.172;2023-02-28T01:08:40;6.13;;;2.40;;
22861;SDS011;11598;50.652;6.172;2023-02-28T01:18:40;6.60;;;2.63;;
22861;SDS011;11598;50.652;6.172;2023-02-28T01:28:41;5.28;;;1.83;;
22861;SDS011;11598;50.652;6.172;2023-02-28T01:38:42;6.67;;;3.10;;
22861;SDS011;11598;50.652;6.172;2023-02-28T01:48:48;7.00;;;3.03;;
22861;SDS011;11598;50.652;6.172;2023-02-28T01:58:53;7.18;;;3.20;;
22861;SDS011;11598;50.652;6.172;2023-02-28T02:08:55;9.90;;;3.10;;
22861;SDS011;11598;50.652;6.172;2023-02-28T02:18:57;6.00;;;2.20;;
22861;SDS011;11598;50.652;6.172;2023-02-28T02:39:14;10.85;;;2.63;;
22861;SDS011;11598;50.652;6.172;2023-02-28T02:49:21;9.40;;;3.13;;
22861;SDS011;11598;50.652;6.172;2023-02-28T02:59:26;7.10;;;2.75;;
22861;SDS011;11598;50.652;6.172;2023-02-28T03:09:28;6.90;;;2.60;;
22861;SDS011;11598;50.652;6.172;2023-02-28T03:40:10;5.23;;;2.40;;
22861;SDS011;11598;50.652;6.172;2023-02-28T03:50:15;4.90;;;2.60;;
22861;SDS011;11598;50.652;6.172;2023-02-28T04:00:30;6.10;;;2.75;;
22861;SDS011;11598;50.652;6.172;2023-02-28T04:10:35;5.07;;;2.33;;
22861;SDS011;11598;50.652;6.172;2023-02-28T04:20:35;6.70;;;2.83;;
22861;SDS011;11598;50.652;6.172;2023-02-28T04:30:37;5.97;;;2.57;;
22861;SDS011;11598;50.652;6.172;2023-02-28T04:50:38;4.88;;;2.35;;
22861;SDS011;11598;50.652;6.172;2023-02-28T05:00:38;6.70;;;3.03;;
22861;SDS011;11598;50.652;6.172;2023-02-28T05:10:39;5.88;;;2.90;;
22861;SDS011;11598;50.652;6.172;2023-02-28T05:20:39;4.83;;;2.30;;
22861;SDS011;11598;50.652;6.172;2023-02-28T05:30:40;6.78;;;3.20;;
22861;SDS011;11598;50.652;6.172;2023-02-28T05:40:40;6.00;;;3.13;;
22861;SDS011;11598;50.652;6.172;2023-02-28T05:50:40;6.40;;;3.13;;
22861;SDS011;11598;50.652;6.172;2023-02-28T06:10:42;7.20;;;3.33;;
22861;SDS011;11598;50.652;6.172;2023-02-28T06:20:43;10.02;;;4.55;;
22861;SDS011;11598;50.652;6.172;2023-02-28T06:30:43;7.03;;;2.65;;
22861;SDS011;11598;50.652;6.172;2023-02-28T06:40:44;6.97;;;3.13;;
22861;SDS011;11598;50.652;6.172;2023-02-28T06:50:52;6.97;;;3.22;;
22861;SDS011;11598;50.652;6.172;2023-02-28T07:01:01;8.82;;;2.95;;
22861;SDS011;11598;50.652;6.172;2023-02-28T07:11:03;6.18;;;2.70;;
22861;SDS011;11598;50.652;6.172;2023-02-28T07:21:05;5.17;;;2.20;;
22861;SDS011;11598;50.652;6.172;2023-02-28T07:31:07;4.63;;;2.20;;
22861;SDS011;11598;50.652;6.172;2023-02-28T07:41:09;4.65;;;2.30;;
22861;SDS011;11598;50.652;6.172;2023-02-28T07:51:10;4.93;;;2.08;;
22861;SDS011;11598;50.652;6.172;2023-02-28T08:01:11;3.97;;;1.98;;
22861;SDS011;11598;50.652;6.172;2023-02-28T08:11:12;5.68;;;2.20;;
22861;SDS011;11598;50.652;6.172;2023-02-28T08:21:12;24.98;;;7.60;;
22861;SDS011;11598;50.652;6.172;2023-02-28T08:31:14;6.95;;;2.47;;
22861;SDS011;11598;50.652;6.172;2023-02-28T08:41:15;3.40;;;1.80;;
22861;SDS011;11598;50.652;6.172;2023-02-28T08:51:16;5.40;;;1.90;;
22861;SDS011;11598;50.652;6.172;2023-02-28T09:01:27;4.25;;;1.80;;
22861;SDS011;11598;50.652;6.172;2023-02-28T09:11:28;3.88;;;1.70;;
22861;SDS011;11598;50.652;6.172;2023-02-28T09:21:29;3.50;;;1.17;;
22861;SDS011;11598;50.652;6.172;2023-02-28T09:31:29;2.35;;;1.05;;
22861;SDS011;11598;50.652;6.172;2023-02-28T09:41:32;3.38;;;1.50;;
22861;SDS011;11598;50.652;6.172;2023-02-28T09:51:43;4.25;;;2.00;;
22861;SDS011;11598;50.652;6.172;2023-02-28T10:01:59;4.30;;;1.52;;
22861;SDS011;11598;50.652;6.172;2023-02-28T10:12:09;5.10;;;2.03;;
22861;SDS011;11598;50.652;6.172;2023-02-28T10:32:30;3.75;;;1.95;;
22861;SDS011;11598;50.652;6.172;2023-02-28T10:42:33;5.40;;;2.17;;
22861;SDS011;11598;50.652;6.172;2023-02-28T10:52:39;4.75;;;2.08;;
22861;SDS011;11598;50.652;6.172;2023-02-28T11:02:40;13.63;;;5.47;;
22861;SDS011;11598;50.652;6.172;2023-02-28T11:12:44;3.60;;;1.67;;
22861;SDS011;11598;50.652;6.172;2023-02-28T11:22:45;7.93;;;1.83;;
22861;SDS011;11598;50.652;6.172;2023-02-28T11:32:49;8.63;;;3.88;;
22861;SDS011;11598;50.652;6.172;2023-02-28T12:03:16;6.95;;;3.10;;
22861;SDS011;11598;50.652;6.172;2023-02-28T12:24:19;17.27;;;7.90;;
22861;SDS011;11598;50.652;6.172;2023-02-28T12:34:29;7.38;;;3.03;;
22861;SDS011;11598;50.652;6.172;2023-02-28T12:44:42;4.90;;;2.33;;
22861;SDS011;11598;50.652;6.172;2023-02-28T12:54:53;4.68;;;2.25;;
22861;SDS011;11598;50.652;6.172;2023-02-28T13:15:39;4.75;;;2.55;;
22861;SDS011;11598;50.652;6.172;2023-02-28T13:46:11;4.07;;;2.00;;
22861;SDS011;11598;50.652;6.172;2023-02-28T13:56:19;4.30;;;1.65;;
22861;SDS011;11598;50.652;6.172;2023-02-28T14:16:41;6.88;;;2.38;;
22861;SDS011;11598;50.652;6.172;2023-02-28T14:37:04;5.80;;;2.60;;
22861;SDS011;11598;50.652;6.172;2023-02-28T14:47:11;7.53;;;2.95;;
22861;SDS011;11598;50.652;6.172;2023-02-28T14:57:26;5.10;;;2.65;;
22861;SDS011;11598;50.652;6.172;2023-02-28T15:07:31;4.60;;;2.15;;
22861;SDS011;11598;50.652;6.172;2023-02-28T15:17:32;4.47;;;2.20;;
22861;SDS011;11598;50.652;6.172;2023-02-28T15:27:34;5.97;;;2.80;;
22861;SDS011;11598;50.652;6.172;2023-02-28T15:37:46;5.78;;;2.80;;
22861;SDS011;11598;50.652;6.172;2023-02-28T15:47:48;6.63;;;2.85;;
22861;SDS011;11598;50.652;6.172;2023-02-28T15:57:51;6.70;;;3.10;;
22861;SDS011;11598;50.652;6.172;2023-02-28T16:07:55;5.70;;;2.83;;
22861;SDS011;11598;50.652;6.172;2023-02-28T16:17:57;6.13;;;2.55;;
22861;SDS011;11598;50.652;6.172;2023-02-28T16:27:58;7.15;;;3.05;;
22861;SDS011;11598;50.652;6.172;2023-02-28T16:38:00;5.67;;;2.93;;
22861;SDS011;11598;50.652;6.172;2023-02-28T16:48:01;6.13;;;2.70;;
22861;SDS011;11598;50.652;6.172;2023-02-28T16:58:02;6.18;;;2.83;;
22861;SDS011;11598;50.652;6.172;2023-02-28T17:08:03;5.43;;;2.67;;
22861;SDS011;11598;50.652;6.172;2023-02-28T17:18:03;7.10;;;3.30;;
22861;SDS011;11598;50.652;6.172;2023-02-28T17:28:04;5.65;;;2.88;;
22861;SDS011;11598;50.652;6.172;2023-02-28T17:58:11;6.30;;;2.95;;
22861;SDS011;11598;50.652;6.172;2023-02-28T18:08:12;5.43;;;2.70;;
22861;SDS011;11598;50.652;6.172;2023-02-28T18:18:14;6.80;;;3.53;;
22861;SDS011;11598;50.652;6.172;2023-02-28T18:28:15;7.78;;;3.53;;
22861;SDS011;11598;50.652;6.172;2023-02-28T18:38:16;5.93;;;3.10;;
22861;SDS011;11598;50.652;6.172;2023-02-28T18:48:21;5.43;;;2.92;;
22861;SDS011;11598;50.652;6.172;2023-02-28T18:58:22;8.38;;;3.88;;
22861;SDS011;11598;50.652;6.172;2023-02-28T19:08:23;6.93;;;3.25;;
22861;SDS011;11598;50.652;6.172;2023-02-28T19:18:24;4.87;;;2.47;;
22861;SDS011;11598;50.652;6.172;2023-02-28T19:28:28;7.22;;;3.42;;
22861;SDS011;11598;50.652;6.172;2023-02-28T19:38:32;11.10;;;4.10;;
22861;SDS011;11598;50.652;6.172;2023-02-28T19:48:32;6.07;;;3.50;;
22861;SDS011;11598;50.652;6.172;2023-02-28T19:58:32;9.73;;;4.40;;
22861;SDS011;11598;50.652;6.172;2023-02-28T20:08:33;8.75;;;3.92;;
22861;SDS011;11598;50.652;6.172;2023-02-28T20:18:34;6.72;;;3.97;;
22861;SDS011;11598;50.652;6.172;2023-02-28T20:28:37;8.18;;;4.03;;
22861;SDS011;11598;50.652;6.172;2023-02-28T20:38:38;8.10;;;3.90;;
22861;SDS011;11598;50.652;6.172;2023-02-28T20:48:40;10.97;;;5.20;;
22861;SDS011;11598;50.652;6.172;2023-02-28T20:58:41;11.85;;;4.97;;
22861;SDS011;11598;50.652;6.172;2023-02-28T21:08:43;10.40;;;4.85;;
22861;SDS011;11598;50.652;6.172;2023-02-28T21:18:43;15.57;;;5.90;;
22861;SDS011;11598;50.652;6.172;2023-02-28T21:28:51;11.63;;;5.65;;
22861;SDS011;11598;50.652;6.172;2023-02-28T21:38:54;9.82;;;5.28;;
22861;SDS011;11598;50.652;6.172;2023-02-28T21:48:56;12.80;;;5.40;;
22861;SDS011;11598;50.652;6.172;2023-02-28T21:58:57;12.27;;;5.40;;
22861;SDS011;11598;50.652;6.172;2023-02-28T22:09:02;11.25;;;4.70;;
22861;SDS011;11598;50.652;6.172;2023-02-28T22:19:05;8.82;;;4.78;;
22861;SDS011;11598;50.652;6.172;2023-02-28T22:29:06;9.80;;;4.72;;
22861;SDS011;11598;50.652;6.172;2023-02-28T22:39:07;9.10;;;4.90;;
22861;SDS011;11598;50.652;6.172;2023-02-28T22:49:08;8.80;;;5.17;;
22861;SDS011;11598;50.652;6.172;2023-02-28T22:59:10;8.55;;;5.00;;
22861;SDS011;11598;50.652;6.172;2023-02-28T23:09:13;8.90;;;4.75;;
22861;SDS011;11598;50.652;6.172;2023-02-28T23:19:24;10.35;;;5.55;;
22861;SDS011;11598;50.652;6.172;2023-02-28T23:29:27;9.52;;;5.68;;
22861;SDS011;11598;50.652;6.172;2023-02-28T23:39:28;10.15;;;6.28;;
22861;SDS011;11598;50.652;6.172;2023-02-28T23:49:30;13.25;;;6.82;;
22861;SDS011;11598;50.652;6.172;2023-02-28T23:59:30;10.30;;;5.85;;
